Eleni — A8UI7 — position and weather

sailwx.info

Track history (hours):
 
Tides and Currents Weather Stations Pressure Air Temp Water Temp Dewpoint Dewpoint Depression Visibility Wind Speed Wind Dir Waves Ship Positions

Eleni

Last reported at 2018-Feb-21 12:19 UTC. Time now 2018-Feb-23 00:39 UTC.
Position S 30°31' E 030°56'.

Length 274 m; draft 9 m.

Type: Tanker. MMSI: 636014502.

Date/timePositionNaut miles runAvg speedWind from/ knotsBaromVisibWave heightAir tempDewpointWater temp
2018-Feb-21 12:19S 30°31' E 030°56'714.9
2018-Feb-21 11:52S 30°25' E 030°59'514.4
2018-Feb-21 11:30S 30°20' E 031°01'713.6
2018-Feb-21 11:00S 30°14' E 031°04'712.3
2018-Feb-21 10:27S 30°08' E 031°07'511.8
2018-Feb-21 10:00S 30°03' E 031°09'5 9.6
2018-Feb-21 09:30S 29°58' E 031°11'3 5.3
2018-Feb-21 09:00S 29°56' E 031°12'0 0.3
2018-Feb-21 08:30S 29°56' E 031°12'0 0.7
2018-Feb-21 08:00S 29°56' E 031°12'0 0.9
2018-Feb-21 07:30S 29°56' E 031°11'0 0.9
2018-Feb-21 07:00S 29°56' E 031°11'0 0.9
2018-Feb-21 06:30S 29°56' E 031°10'0 0.8
2018-Feb-21 06:00S 29°57' E 031°10'0 0.8
2018-Feb-21 05:30S 29°57' E 031°10'0 0.7
2018-Feb-21 04:59S 29°57' E 031°09'0 0.7
2018-Feb-21 04:30S 29°57' E 031°09'0 0.7
2018-Feb-21 04:00S 29°58' E 031°09'0 0.9
2018-Feb-21 03:30S 29°58' E 031°08'1 1.1
2018-Feb-21 03:00S 29°58' E 031°08'0 0.6
2018-Feb-21 02:30S 29°59' E 031°08'0 0.5
2018-Feb-21 02:00S 29°59' E 031°08'1 2.4
2018-Feb-21 01:30S 29°58' E 031°09'2 3.6
2018-Feb-21 01:00S 29°57' E 031°11'2 3.6
2018-Feb-21 00:30S 29°56' E 031°12'1 2.4
2018-Feb-21 00:00S 29°55' E 031°14'1 1.3
2018-Feb-20 23:30S 29°56' E 031°13'1 1.2
2018-Feb-20 23:00S 29°56' E 031°13'1 1.2
2018-Feb-20 22:30S 29°57' E 031°13'1 1.1
2018-Feb-20 22:00S 29°58' E 031°13'1 1.2
2018-Feb-20 21:30S 29°58' E 031°12'1 1.4
2018-Feb-20 21:00S 29°59' E 031°12'1 1.3
2018-Feb-20 20:30S 29°59' E 031°11'1 1.3
2018-Feb-20 20:00S 29°59' E 031°11'1 1.2
2018-Feb-20 19:30S 29°60' E 031°10'1 1.2
2018-Feb-20 19:00S 29°60' E 031°10'1 1.4
2018-Feb-20 18:30S 29°60' E 031°09'1 2.7
2018-Feb-20 18:00S 30°00' E 031°07'3 6.6
2018-Feb-20 17:30S 30°01' E 031°03'4 7.6
2018-Feb-20 16:59S 30°01' E 030°59'1 0.1
2018-Feb-20 02:40S 30°00' E 030°59'0 0.0
2018-Feb-20 02:22S 30°00' E 030°59'0 0.0
2018-Feb-19 04:53S 30°00' E 030°58'0 0.1
2018-Feb-19 04:30S 30°00' E 030°59'1 1.1
2018-Feb-19 04:00S 29°60' E 030°59'2 3.5
2018-Feb-19 03:30S 30°00' E 031°01'1 1.8
2018-Feb-19 03:00S 30°01' E 031°01'1 2.5
2018-Feb-19 02:30S 30°02' E 031°00'1 2.5
2018-Feb-19 02:00S 30°03' E 030°59'0 0.1
2018-Feb-19 01:26S 30°03' E 030°59'0 0.0
2018-Feb-19 00:56S 30°03' E 030°59'0 0.1
2018-Feb-19 00:26S 30°03' E 030°59'0 0.1
2018-Feb-18 23:56S 30°03' E 030°59'0 0.1
2018-Feb-18 23:26S 30°03' E 030°59'0 0.1
2018-Feb-18 22:56S 30°03' E 030°59'0 0.1
2018-Feb-18 22:29S 30°03' E 030°59'0 0.1
2018-Feb-18 21:56S 30°03' E 030°59'0 0.0
2018-Feb-18 21:20S 30°03' E 030°59'0 0.0
2018-Feb-18 20:56S 30°03' E 030°59'0 0.0
2018-Feb-18 20:26S 30°03' E 030°59'0 0.0
2018-Feb-18 19:59S 30°03' E 030°59'0 0.0
2018-Feb-18 19:29S 30°03' E 030°59'0 0.0
2018-Feb-18 18:59S 30°03' E 030°59'0 0.0
2018-Feb-18 18:29S 30°03' E 030°59'0 0.0
2018-Feb-18 18:00S 30°03' E 030°59'0 0.0
2018-Feb-18 17:30S 30°03' E 030°59'0 0.1
2018-Feb-18 17:00S 30°03' E 030°59'0 0.1
2018-Feb-18 16:30S 30°03' E 030°59'0 0.3
2018-Feb-18 16:00S 30°03' E 030°59'0 0.5
2018-Feb-18 15:30S 30°03' E 030°59'1 2.2
2018-Feb-18 15:00S 30°03' E 031°00'1 2.6
2018-Feb-18 14:30S 30°02' E 030°60'1 1.9
2018-Feb-18 14:00S 30°01' E 031°00'3 5.1
2018-Feb-18 13:30S 30°00' E 031°03'1 2.6
2018-Feb-18 13:00S 30°00' E 031°01'1 1.0
2018-Feb-18 12:30S 30°00' E 031°01'1 1.2
2018-Feb-18 12:00S 30°00' E 031°01'2 3.1
2018-Feb-18 11:30S 29°60' E 031°03'2 4.7
2018-Feb-18 11:00S 29°59' E 031°05'4 7.6
2018-Feb-18 10:30S 29°57' E 031°09'3 5.9
2018-Feb-18 10:00S 29°55' E 031°12'510.5
2018-Feb-18 09:30S 29°52' E 031°17'611.4
2018-Feb-18 09:00S 29°49' E 031°23'611.1
2018-Feb-18 08:30S 29°46' E 031°28'710.9
2018-Feb-18 07:50S 29°42' E 031°35'310.4
2018-Feb-18 07:30S 29°40' E 031°38'510.9
2018-Feb-18 07:00S 29°38' E 031°44'611.1
2018-Feb-18 06:30S 29°35' E 031°49'610.8
2018-Feb-18 05:59S 29°31' E 031°54'511.4
2018-Feb-18 05:30S 29°29' E 031°60'611.4
2018-Feb-18 05:00S 29°25' E 032°05'511.2
2018-Feb-18 04:30S 29°23' E 032°11'  
Track history (hours):
 
Tides and Currents Weather Stations Pressure Air Temp Water Temp Dewpoint Dewpoint Depression Visibility Wind Speed Wind Dir Waves Ship Positions

Eleni

Last reported at 2018-Feb-21 12:19 UTC. Time now 2018-Feb-23 00:39 UTC.
Position S 30°31' E 030°56'.

Length 274 m; draft 9 m.

Type: Tanker. MMSI: 636014502.

Date/timePositionNaut miles runAvg speedWind from/ knotsBaromVisibWave heightAir tempDewpointWater temp
2018-Feb-21 12:19S 30°31' E 030°56'714.9
2018-Feb-21 11:52S 30°25' E 030°59'514.4
2018-Feb-21 11:30S 30°20' E 031°01'713.6
2018-Feb-21 11:00S 30°14' E 031°04'712.3
2018-Feb-21 10:27S 30°08' E 031°07'511.8
2018-Feb-21 10:00S 30°03' E 031°09'5 9.6
2018-Feb-21 09:30S 29°58' E 031°11'3 5.3
2018-Feb-21 09:00S 29°56' E 031°12'0 0.3
2018-Feb-21 08:30S 29°56' E 031°12'0 0.7
2018-Feb-21 08:00S 29°56' E 031°12'0 0.9
2018-Feb-21 07:30S 29°56' E 031°11'0 0.9
2018-Feb-21 07:00S 29°56' E 031°11'0 0.9
2018-Feb-21 06:30S 29°56' E 031°10'0 0.8
2018-Feb-21 06:00S 29°57' E 031°10'0 0.8
2018-Feb-21 05:30S 29°57' E 031°10'0 0.7
2018-Feb-21 04:59S 29°57' E 031°09'0 0.7
2018-Feb-21 04:30S 29°57' E 031°09'0 0.7
2018-Feb-21 04:00S 29°58' E 031°09'0 0.9
2018-Feb-21 03:30S 29°58' E 031°08'1 1.1
2018-Feb-21 03:00S 29°58' E 031°08'0 0.6
2018-Feb-21 02:30S 29°59' E 031°08'0 0.5
2018-Feb-21 02:00S 29°59' E 031°08'1 2.4
2018-Feb-21 01:30S 29°58' E 031°09'2 3.6
2018-Feb-21 01:00S 29°57' E 031°11'2 3.6
2018-Feb-21 00:30S 29°56' E 031°12'1 2.4
2018-Feb-21 00:00S 29°55' E 031°14'1 1.3
2018-Feb-20 23:30S 29°56' E 031°13'1 1.2
2018-Feb-20 23:00S 29°56' E 031°13'1 1.2
2018-Feb-20 22:30S 29°57' E 031°13'1 1.1
2018-Feb-20 22:00S 29°58' E 031°13'1 1.2
2018-Feb-20 21:30S 29°58' E 031°12'1 1.4
2018-Feb-20 21:00S 29°59' E 031°12'1 1.3
2018-Feb-20 20:30S 29°59' E 031°11'1 1.3
2018-Feb-20 20:00S 29°59' E 031°11'1 1.2
2018-Feb-20 19:30S 29°60' E 031°10'1 1.2
2018-Feb-20 19:00S 29°60' E 031°10'1 1.4
2018-Feb-20 18:30S 29°60' E 031°09'1 2.7
2018-Feb-20 18:00S 30°00' E 031°07'3 6.6
2018-Feb-20 17:30S 30°01' E 031°03'4 7.6
2018-Feb-20 16:59S 30°01' E 030°59'1 0.1
2018-Feb-20 02:40S 30°00' E 030°59'0 0.0
2018-Feb-20 02:22S 30°00' E 030°59'0 0.0
2018-Feb-19 04:53S 30°00' E 030°58'0 0.1
2018-Feb-19 04:30S 30°00' E 030°59'1 1.1
2018-Feb-19 04:00S 29°60' E 030°59'2 3.5
2018-Feb-19 03:30S 30°00' E 031°01'1 1.8
2018-Feb-19 03:00S 30°01' E 031°01'1 2.5
2018-Feb-19 02:30S 30°02' E 031°00'1 2.5
2018-Feb-19 02:00S 30°03' E 030°59'0 0.1
2018-Feb-19 01:26S 30°03' E 030°59'0 0.0
2018-Feb-19 00:56S 30°03' E 030°59'0 0.1
2018-Feb-19 00:26S 30°03' E 030°59'0 0.1
2018-Feb-18 23:56S 30°03' E 030°59'0 0.1
2018-Feb-18 23:26S 30°03' E 030°59'0 0.1
2018-Feb-18 22:56S 30°03' E 030°59'0 0.1
2018-Feb-18 22:29S 30°03' E 030°59'0 0.1
2018-Feb-18 21:56S 30°03' E 030°59'0 0.0
2018-Feb-18 21:20S 30°03' E 030°59'0 0.0
2018-Feb-18 20:56S 30°03' E 030°59'0 0.0
2018-Feb-18 20:26S 30°03' E 030°59'0 0.0
2018-Feb-18 19:59S 30°03' E 030°59'0 0.0
2018-Feb-18 19:29S 30°03' E 030°59'0 0.0
2018-Feb-18 18:59S 30°03' E 030°59'0 0.0
2018-Feb-18 18:29S 30°03' E 030°59'0 0.0
2018-Feb-18 18:00S 30°03' E 030°59'0 0.0
2018-Feb-18 17:30S 30°03' E 030°59'0 0.1
2018-Feb-18 17:00S 30°03' E 030°59'0 0.1
2018-Feb-18 16:30S 30°03' E 030°59'0 0.3
2018-Feb-18 16:00S 30°03' E 030°59'0 0.5
2018-Feb-18 15:30S 30°03' E 030°59'1 2.2
2018-Feb-18 15:00S 30°03' E 031°00'1 2.6
2018-Feb-18 14:30S 30°02' E 030°60'1 1.9
2018-Feb-18 14:00S 30°01' E 031°00'3 5.1
2018-Feb-18 13:30S 30°00' E 031°03'1 2.6
2018-Feb-18 13:00S 30°00' E 031°01'1 1.0
2018-Feb-18 12:30S 30°00' E 031°01'1 1.2
2018-Feb-18 12:00S 30°00' E 031°01'2 3.1
2018-Feb-18 11:30S 29°60' E 031°03'2 4.7
2018-Feb-18 11:00S 29°59' E 031°05'4 7.6
2018-Feb-18 10:30S 29°57' E 031°09'3 5.9
2018-Feb-18 10:00S 29°55' E 031°12'510.5
2018-Feb-18 09:30S 29°52' E 031°17'611.4
2018-Feb-18 09:00S 29°49' E 031°23'611.1
2018-Feb-18 08:30S 29°46' E 031°28'710.9
2018-Feb-18 07:50S 29°42' E 031°35'310.4
2018-Feb-18 07:30S 29°40' E 031°38'510.9
2018-Feb-18 07:00S 29°38' E 031°44'611.1
2018-Feb-18 06:30S 29°35' E 031°49'610.8
2018-Feb-18 05:59S 29°31' E 031°54'511.4
2018-Feb-18 05:30S 29°29' E 031°60'611.4
2018-Feb-18 05:00S 29°25' E 032°05'511.2
2018-Feb-18 04:30S 29°23' E 032°11'  

Dump ship's entire track history